createdAt,value
2022-11-19T00:01:20.932Z,9.52
2022-11-19T00:03:52.451Z,14.80
2022-11-19T00:06:21.823Z,5.72
2022-11-19T00:08:49.144Z,6.70
2022-11-19T00:11:38.183Z,6.88
2022-11-19T00:14:05.436Z,7.32
2022-11-19T00:16:32.481Z,5.43
2022-11-19T00:19:08.179Z,5.13
2022-11-19T00:21:49.242Z,8.40
2022-11-19T00:24:29.061Z,5.18
2022-11-19T00:26:56.833Z,7.57
2022-11-19T00:29:24.318Z,8.40
2022-11-19T00:31:51.732Z,7.13
2022-11-19T00:34:18.899Z,6.35
2022-11-19T00:36:46.244Z,9.05
2022-11-19T00:39:13.662Z,4.70
2022-11-19T00:41:49.678Z,10.23
2022-11-19T00:44:17.033Z,7.40
2022-11-19T00:46:44.173Z,8.13
2022-11-19T00:49:11.542Z,7.78
2022-11-19T00:51:49.392Z,7.05
2022-11-19T00:54:19.406Z,6.03
2022-11-19T00:57:14.553Z,6.75
2022-11-19T00:59:43.789Z,7.43
2022-11-19T01:02:39.021Z,5.53
2022-11-19T01:05:06.701Z,7.63
2022-11-19T01:07:34.051Z,10.15
2022-11-19T01:10:06.362Z,5.30
2022-11-19T01:12:53.663Z,6.95
2022-11-19T01:15:20.911Z,6.65
2022-11-19T01:17:48.790Z,5.55
2022-11-19T01:20:16.144Z,6.45
2022-11-19T01:22:43.660Z,4.47
2022-11-19T01:25:14.391Z,9.98
2022-11-19T01:27:45.025Z,6.53
2022-11-19T01:30:12.736Z,5.53
2022-11-19T01:32:39.985Z,6.10
2022-11-19T01:35:07.790Z,4.00
2022-11-19T01:37:35.158Z,4.38
2022-11-19T01:40:07.677Z,4.05
2022-11-19T01:42:50.240Z,10.77
2022-11-19T01:45:37.500Z,7.90
2022-11-19T01:48:19.161Z,5.80
2022-11-19T01:50:55.447Z,6.65
2022-11-19T01:53:23.259Z,6.80
2022-11-19T01:55:50.476Z,7.60
2022-11-19T01:58:19.456Z,7.28
2022-11-19T02:00:46.649Z,10.15
2022-11-19T02:03:13.869Z,4.38
2022-11-19T02:05:41.671Z,6.78
2022-11-19T02:08:10.437Z,5.18
2022-11-19T02:11:01.795Z,5.57
2022-11-19T02:13:54.189Z,6.28
2022-11-19T02:16:43.187Z,3.67
2022-11-19T02:20:02.353Z,7.30
2022-11-19T02:23:06.940Z,5.28
2022-11-19T02:25:49.538Z,7.47
2022-11-19T02:28:34.661Z,6.65
2022-11-19T02:31:28.394Z,8.18
2022-11-19T02:33:56.737Z,7.70
2022-11-19T02:36:39.165Z,8.27
2022-11-19T02:39:15.808Z,7.60
2022-11-19T02:41:53.446Z,7.45
2022-11-19T02:44:46.755Z,11.20
2022-11-19T02:47:19.661Z,6.28
2022-11-19T02:49:46.829Z,8.00
2022-11-19T02:52:17.157Z,6.43
2022-11-19T02:54:44.512Z,8.93
2022-11-19T02:57:12.495Z,4.57
2022-11-19T03:00:02.613Z,6.57
2022-11-19T03:02:50.251Z,6.88
2022-11-19T03:05:19.791Z,9.65
2022-11-19T03:07:47.068Z,5.23
2022-11-19T03:10:14.309Z,5.20
2022-11-19T03:12:55.965Z,5.88
2022-11-19T03:15:57.958Z,6.18
2022-11-19T03:18:39.851Z,5.65
2022-11-19T03:21:28.513Z,5.85
2022-11-19T03:24:01.059Z,5.63
2022-11-19T03:26:30.538Z,5.75
2022-11-19T03:28:58.810Z,5.85
2022-11-19T03:31:26.659Z,11.48
2022-11-19T03:33:55.729Z,5.55
2022-11-19T03:36:24.846Z,6.75
2022-11-19T03:38:54.719Z,9.52
2022-11-19T03:41:21.890Z,7.43
2022-11-19T03:43:53.077Z,7.03
2022-11-19T03:46:20.374Z,4.30
2022-11-19T03:48:48.507Z,6.35
2022-11-19T03:51:18.087Z,4.55
2022-11-19T03:53:45.465Z,6.87
2022-11-19T03:56:13.998Z,6.72
2022-11-19T03:58:43.480Z,4.43
2022-11-19T04:01:13.112Z,9.32
2022-11-19T04:03:40.352Z,5.43
2022-11-19T04:06:07.488Z,5.85
2022-11-19T04:08:34.638Z,4.60
2022-11-19T04:13:27.945Z,5.45
2022-11-19T04:15:55.291Z,7.18
2022-11-19T04:18:22.449Z,7.88
2022-11-19T04:20:49.545Z,7.63
2022-11-19T04:23:16.690Z,6.90
2022-11-19T04:25:47.685Z,6.18
2022-11-19T04:28:14.811Z,3.95
2022-11-19T04:30:45.672Z,5.43
2022-11-19T04:33:12.926Z,11.30
2022-11-19T04:35:40.124Z,4.88
2022-11-19T04:38:07.425Z,6.00
2022-11-19T04:40:34.789Z,6.03
2022-11-19T04:43:01.886Z,6.18
2022-11-19T04:45:29.183Z,7.15
2022-11-19T04:47:56.271Z,7.15
2022-11-19T04:50:23.363Z,6.32
2022-11-19T04:52:50.496Z,10.95
2022-11-19T04:55:17.656Z,5.13
2022-11-19T04:57:44.765Z,6.32
2022-11-19T05:00:15.508Z,5.00
2022-11-19T05:02:42.649Z,6.10
2022-11-19T05:05:10.135Z,9.70
2022-11-19T05:07:37.402Z,7.28
2022-11-19T05:10:05.029Z,9.55
2022-11-19T05:12:32.072Z,6.10
2022-11-19T05:14:59.591Z,6.05
2022-11-19T05:17:27.086Z,5.53
2022-11-19T05:19:54.240Z,6.78
2022-11-19T05:22:21.496Z,6.28
2022-11-19T05:24:48.785Z,6.60
2022-11-19T05:27:15.779Z,4.95
2022-11-19T05:29:43.072Z,5.40
2022-11-19T05:32:10.305Z,7.03
2022-11-19T05:34:37.400Z,5.90
2022-11-19T05:37:04.550Z,7.00
2022-11-19T05:39:31.914Z,6.40
2022-11-19T05:41:59.142Z,6.40
2022-11-19T05:44:26.349Z,4.70
2022-11-19T05:46:53.639Z,6.18
2022-11-19T05:49:21.047Z,9.10
2022-11-19T05:51:48.368Z,3.90
2022-11-19T05:54:15.927Z,7.60
2022-11-19T05:56:43.028Z,8.68
2022-11-19T05:59:10.634Z,8.50
2022-11-19T06:01:37.982Z,9.40
2022-11-19T06:04:05.270Z,4.03
2022-11-19T06:06:32.506Z,7.07
2022-11-19T06:08:59.695Z,4.65
2022-11-19T06:11:45.702Z,6.82
2022-11-19T06:14:16.226Z,4.78
2022-11-19T06:19:11.200Z,6.40
2022-11-19T06:21:38.439Z,5.65
2022-11-19T06:24:05.881Z,6.57
2022-11-19T06:26:33.173Z,5.00
2022-11-19T06:29:00.482Z,4.63
2022-11-19T06:31:27.660Z,3.58
2022-11-19T06:33:54.890Z,7.18
2022-11-19T06:36:22.295Z,4.57
2022-11-19T06:38:49.556Z,8.30
2022-11-19T06:41:17.362Z,7.28
2022-11-19T06:43:44.967Z,5.30
2022-11-19T06:46:15.030Z,5.78
2022-11-19T06:48:42.490Z,5.75
2022-11-19T06:51:09.810Z,6.15
2022-11-19T06:53:37.278Z,9.60
2022-11-19T06:56:06.074Z,8.95
2022-11-19T06:58:33.415Z,6.55
2022-11-19T07:01:00.502Z,6.72
2022-11-19T07:03:27.751Z,4.57
2022-11-19T07:05:57.637Z,4.95
2022-11-19T07:08:24.889Z,6.60
2022-11-19T07:10:52.219Z,2.40
2022-11-19T07:13:19.485Z,7.70
2022-11-19T07:15:46.611Z,4.78
2022-11-19T07:18:17.716Z,9.00
2022-11-19T07:20:50.520Z,4.28
2022-11-19T07:23:17.608Z,7.68
2022-11-19T07:25:44.960Z,3.90
2022-11-19T07:28:12.222Z,5.80
2022-11-19T07:30:39.364Z,6.20
2022-11-19T07:33:06.782Z,5.82
2022-11-19T07:35:34.110Z,7.03
2022-11-19T07:38:01.340Z,6.55
2022-11-19T07:40:28.717Z,7.47
2022-11-19T07:42:56.036Z,9.35
2022-11-19T07:45:23.643Z,11.57
2022-11-19T07:47:50.964Z,6.55
2022-11-19T07:50:18.403Z,4.10
2022-11-19T07:52:45.448Z,6.05
2022-11-19T07:55:12.708Z,3.30
2022-11-19T07:57:39.915Z,7.47
2022-11-19T08:00:10.819Z,7.90
2022-11-19T08:02:45.097Z,7.35
2022-11-19T08:07:39.665Z,7.57
2022-11-19T08:10:07.599Z,4.13
2022-11-19T08:12:34.751Z,7.80
2022-11-19T08:15:02.107Z,5.22
2022-11-19T08:17:48.236Z,6.10
2022-11-19T08:20:17.457Z,11.43
2022-11-19T08:22:44.630Z,14.10
2022-11-19T08:25:11.874Z,12.20
2022-11-19T08:27:39.056Z,11.50
2022-11-19T08:30:07.392Z,10.13
2022-11-19T08:32:36.860Z,19.63
2022-11-19T08:35:06.947Z,21.70
2022-11-19T08:37:34.223Z,8.02
2022-11-19T08:40:01.486Z,7.47
2022-11-19T08:42:47.523Z,7.45
2022-11-19T08:45:19.599Z,4.68
2022-11-19T08:47:48.285Z,4.88
2022-11-19T08:50:16.147Z,7.40
2022-11-19T08:52:43.674Z,8.75
2022-11-19T08:55:15.794Z,7.43
2022-11-19T08:57:43.236Z,6.90
2022-11-19T09:00:28.953Z,4.50
2022-11-19T09:02:56.371Z,5.03
2022-11-19T09:05:23.672Z,7.63
2022-11-19T09:07:50.766Z,9.70
2022-11-19T09:10:20.190Z,7.50
2022-11-19T09:12:47.375Z,7.18
2022-11-19T09:15:14.601Z,6.13
2022-11-19T09:17:46.601Z,7.38
2022-11-19T09:20:14.196Z,9.77
2022-11-19T09:22:41.879Z,5.82
2022-11-19T09:25:12.220Z,6.68
2022-11-19T09:27:41.286Z,7.45
2022-11-19T09:30:09.028Z,4.85
2022-11-19T09:32:36.527Z,4.30
2022-11-19T09:35:12.471Z,7.32
2022-11-19T09:38:00.401Z,7.72
2022-11-19T09:40:43.143Z,7.40
2022-11-19T09:43:53.914Z,8.07
2022-11-19T09:48:53.693Z,9.35
2022-11-19T09:51:29.343Z,21.80
2022-11-19T09:54:00.095Z,8.40
2022-11-19T09:56:39.601Z,7.13
2022-11-19T09:59:29.073Z,7.40
2022-11-19T10:01:56.514Z,8.23
2022-11-19T10:04:26.452Z,7.93
2022-11-19T10:07:15.355Z,7.38
2022-11-19T10:10:24.338Z,11.55
2022-11-19T10:13:14.652Z,10.80
2022-11-19T10:16:32.773Z,6.32
2022-11-19T10:19:19.368Z,5.70
2022-11-19T10:21:59.186Z,6.95
2022-11-19T10:24:57.660Z,6.85
2022-11-19T10:27:25.870Z,7.90
2022-11-19T10:29:54.000Z,6.68
2022-11-19T10:32:32.368Z,9.15
2022-11-19T10:35:09.828Z,6.35
2022-11-19T10:38:18.710Z,5.70
2022-11-19T10:40:58.066Z,8.05
2022-11-19T10:43:48.409Z,6.68
2022-11-19T10:46:39.756Z,11.07
2022-11-19T10:49:08.305Z,6.03
2022-11-19T10:51:39.980Z,6.47
2022-11-19T10:54:14.879Z,5.65
2022-11-19T10:56:42.380Z,6.68
2022-11-19T10:59:21.025Z,7.18
2022-11-19T11:01:50.677Z,6.22
2022-11-19T11:04:22.971Z,9.43
2022-11-19T11:07:01.020Z,6.75
2022-11-19T11:09:38.730Z,6.07
2022-11-19T11:12:42.298Z,8.27
2022-11-19T11:15:21.564Z,7.72
2022-11-19T11:17:50.033Z,9.57
2022-11-19T11:20:17.414Z,8.27
2022-11-19T11:22:45.926Z,6.40
2022-11-19T11:25:28.819Z,6.90
2022-11-19T11:28:15.090Z,6.43
2022-11-19T11:31:01.341Z,6.53
2022-11-19T11:33:37.686Z,8.52
2022-11-19T11:36:33.713Z,5.20
2022-11-19T11:39:01.466Z,5.10
2022-11-19T11:42:05.501Z,9.27
2022-11-19T11:44:32.947Z,7.45
2022-11-19T11:47:32.795Z,6.97
2022-11-19T11:50:08.832Z,8.45
2022-11-19T11:52:41.412Z,6.72
2022-11-19T11:55:14.962Z,4.85
2022-11-19T11:57:53.533Z,9.23
2022-11-19T12:00:35.868Z,7.35
2022-11-19T12:03:07.752Z,6.60
2022-11-19T12:06:00.742Z,7.97
2022-11-19T12:08:46.148Z,8.00
2022-11-19T12:11:20.103Z,6.13
2022-11-19T12:14:09.548Z,7.10
2022-11-19T12:16:56.089Z,6.07
2022-11-19T12:19:33.831Z,8.18
2022-11-19T12:22:18.987Z,6.93
2022-11-19T12:25:08.168Z,5.47
2022-11-19T12:27:57.129Z,5.75
2022-11-19T12:30:25.830Z,5.55
2022-11-19T12:33:20.968Z,12.63
2022-11-19T12:36:09.801Z,6.20
2022-11-19T12:39:12.156Z,5.88
2022-11-19T12:41:50.966Z,5.32
2022-11-19T12:44:39.758Z,9.93
2022-11-19T12:47:29.348Z,6.88
2022-11-19T12:50:34.482Z,7.50
2022-11-19T12:53:14.594Z,5.32
2022-11-19T12:55:53.373Z,7.38
2022-11-19T12:58:29.841Z,5.00
2022-11-19T13:01:01.167Z,4.88
2022-11-19T13:04:01.712Z,3.95
2022-11-19T13:06:46.801Z,5.72
2022-11-19T13:09:36.116Z,4.68
2022-11-19T13:12:10.902Z,7.30
2022-11-19T13:14:50.718Z,9.55
2022-11-19T13:17:29.879Z,5.45
2022-11-19T13:19:59.274Z,3.97
2022-11-19T13:22:34.209Z,4.47
2022-11-19T13:25:25.762Z,6.68
2022-11-19T13:27:53.741Z,5.10
2022-11-19T13:30:28.160Z,4.82
2022-11-19T13:33:09.798Z,4.53
2022-11-19T13:35:55.705Z,5.20
2022-11-19T13:38:24.432Z,6.38
2022-11-19T13:41:12.622Z,4.50
2022-11-19T13:43:58.859Z,5.45
2022-11-19T13:46:44.930Z,8.15
2022-11-19T13:49:19.563Z,4.32
2022-11-19T13:51:50.161Z,6.40
2022-11-19T13:54:35.393Z,4.95
2022-11-19T13:57:06.146Z,7.18
2022-11-19T13:59:40.026Z,4.65
2022-11-19T14:02:25.878Z,3.88
2022-11-19T14:05:03.775Z,6.40
2022-11-19T14:07:53.955Z,7.80
2022-11-19T14:10:48.698Z,3.50
2022-11-19T14:13:31.210Z,4.97
2022-11-19T14:16:26.765Z,4.50
2022-11-19T14:19:13.817Z,5.22
2022-11-19T14:22:01.743Z,3.10
2022-11-19T14:24:47.438Z,5.20
2022-11-19T14:27:21.432Z,3.33
2022-11-19T14:29:48.896Z,3.80
2022-11-19T14:32:15.977Z,6.03
2022-11-19T14:35:01.984Z,5.38
2022-11-19T14:37:41.876Z,2.95
2022-11-19T14:40:27.159Z,4.50
2022-11-19T14:43:19.012Z,4.55
2022-11-19T14:46:11.756Z,4.63
2022-11-19T14:48:42.113Z,5.40
2022-11-19T14:51:14.283Z,4.18
2022-11-19T14:53:48.707Z,5.30
2022-11-19T14:56:16.206Z,6.03
2022-11-19T14:58:55.727Z,3.05
2022-11-19T15:01:23.617Z,3.53
2022-11-19T15:03:55.998Z,4.35
2022-11-19T15:06:23.213Z,5.70
2022-11-19T15:08:54.846Z,4.50
2022-11-19T15:11:21.983Z,4.38
2022-11-19T15:14:09.626Z,3.53
2022-11-19T15:16:37.016Z,5.53
2022-11-19T15:19:17.580Z,5.45
2022-11-19T15:25:02.323Z,4.35
2022-11-19T15:27:41.447Z,5.05
2022-11-19T15:30:20.035Z,6.28
2022-11-19T15:33:08.658Z,4.03
2022-11-19T15:35:50.808Z,5.32
2022-11-19T15:38:24.174Z,6.03
2022-11-19T15:40:52.803Z,5.35
2022-11-19T15:43:22.932Z,5.32
2022-11-19T15:46:13.618Z,6.40
2022-11-19T15:49:01.921Z,8.90
2022-11-19T15:51:29.403Z,9.65
2022-11-19T15:54:04.301Z,9.00
2022-11-19T15:56:46.632Z,6.78
2022-11-19T15:59:13.839Z,4.75
2022-11-19T16:01:41.950Z,7.88
2022-11-19T16:08:42.515Z,7.78
2022-11-19T16:11:38.278Z,5.90
2022-11-19T16:14:44.736Z,8.68
2022-11-19T16:17:43.105Z,9.77
2022-11-19T16:20:11.597Z,9.38
2022-11-19T16:22:51.365Z,10.63
2022-11-19T16:25:38.262Z,8.13
2022-11-19T16:28:12.637Z,9.52
2022-11-19T16:30:55.051Z,8.27
2022-11-19T16:33:27.811Z,9.25
2022-11-19T16:36:30.171Z,7.88
2022-11-19T16:38:57.477Z,10.52
2022-11-19T16:41:47.131Z,12.30
2022-11-19T16:44:40.017Z,11.73
2022-11-19T18:08:35.147Z,10.65
2022-11-19T18:12:11.039Z,7.75
2022-11-19T18:14:41.318Z,6.93
2022-11-19T18:17:14.492Z,10.70
2022-11-19T18:19:41.689Z,8.23
2022-11-19T18:22:17.200Z,8.75
2022-11-19T18:24:46.185Z,9.68
2022-11-19T18:27:13.571Z,10.75
2022-11-19T18:29:43.388Z,14.95
2022-11-19T18:32:12.159Z,11.35
2022-11-19T18:34:41.737Z,14.20
2022-11-19T18:37:09.174Z,13.45
2022-11-19T18:39:37.519Z,13.95
2022-11-19T18:42:04.809Z,12.10
2022-11-19T18:44:35.079Z,10.85
2022-11-19T18:47:06.938Z,13.70
2022-11-19T18:49:35.218Z,13.57
2022-11-19T18:52:03.888Z,13.35
2022-11-19T18:54:31.466Z,11.70
2022-11-19T18:56:58.731Z,13.60
2022-11-19T18:59:30.414Z,13.73
2022-11-19T19:01:57.697Z,11.40
2022-11-19T19:04:24.938Z,15.45
2022-11-19T19:06:52.253Z,9.82
2022-11-19T19:09:20.590Z,14.75
2022-11-19T19:12:12.543Z,13.52
2022-11-19T19:14:40.861Z,14.18
2022-11-19T19:17:07.917Z,17.52
2022-11-19T19:19:35.227Z,14.35
2022-11-19T19:22:02.796Z,15.60
2022-11-19T19:24:31.524Z,11.38
2022-11-19T19:26:59.579Z,11.93
2022-11-19T19:29:26.855Z,15.82
2022-11-19T19:31:54.037Z,15.98
2022-11-19T19:34:21.155Z,10.73
2022-11-19T19:36:53.354Z,11.95
2022-11-19T19:39:21.664Z,11.43
2022-11-19T19:41:49.433Z,11.43
2022-11-19T19:44:16.966Z,13.65
2022-11-19T19:46:44.010Z,15.55
2022-11-19T19:49:14.377Z,12.73
2022-11-19T19:51:41.848Z,13.52
2022-11-19T19:54:08.984Z,16.17
2022-11-19T19:56:38.911Z,13.68
2022-11-19T19:59:06.558Z,16.02
2022-11-19T20:01:35.154Z,15.18
2022-11-19T20:04:04.448Z,13.95
2022-11-19T20:06:32.157Z,12.45
2022-11-19T20:09:00.553Z,16.10
2022-11-19T20:11:29.320Z,12.52
2022-11-19T20:13:57.185Z,11.18
2022-11-19T20:16:28.638Z,13.40
2022-11-19T20:18:56.197Z,11.80
2022-11-19T20:21:25.357Z,16.17
2022-11-19T20:23:52.520Z,11.50
2022-11-19T20:26:21.649Z,12.75
2022-11-19T20:28:48.907Z,18.35
2022-11-19T20:31:17.545Z,21.08
2022-11-19T20:33:45.069Z,16.38
2022-11-19T20:36:15.868Z,12.25
2022-11-19T20:38:44.417Z,15.00
2022-11-19T20:41:32.826Z,13.30
2022-11-19T20:44:18.840Z,14.15
2022-11-19T20:46:54.443Z,16.38
2022-11-19T20:49:23.836Z,16.90
2022-11-19T20:51:51.576Z,20.42
2022-11-19T20:54:19.418Z,17.17
2022-11-19T20:56:50.339Z,17.05
2022-11-19T20:59:17.569Z,17.60
2022-11-19T21:01:45.033Z,16.63
2022-11-19T21:04:12.767Z,17.63
2022-11-19T21:06:41.751Z,18.87
2022-11-19T21:09:09.641Z,15.88
2022-11-19T21:11:36.874Z,16.60
2022-11-19T21:14:04.247Z,16.57
2022-11-19T21:16:35.387Z,21.77
2022-11-19T21:19:03.628Z,20.53
2022-11-19T21:21:30.737Z,15.23
2022-11-19T21:23:58.035Z,16.60
2022-11-19T21:26:26.424Z,15.17
2022-11-19T21:28:54.995Z,15.83
2022-11-19T21:31:23.983Z,14.93
2022-11-19T21:36:35.638Z,12.43
2022-11-19T21:39:06.221Z,15.33
2022-11-19T21:41:33.426Z,13.20
2022-11-19T21:44:01.233Z,10.13
2022-11-19T21:46:28.417Z,12.13
2022-11-19T21:48:55.584Z,11.50
2022-11-19T21:51:24.996Z,13.00
2022-11-19T21:53:58.252Z,14.43
2022-11-19T21:56:25.840Z,13.20
2022-11-19T21:58:53.015Z,10.27
2022-11-19T22:01:20.351Z,11.77
2022-11-19T22:03:47.697Z,12.93
2022-11-19T22:06:14.910Z,10.50
2022-11-19T22:08:42.274Z,13.67
2022-11-19T22:11:28.896Z,13.13
2022-11-19T22:14:03.938Z,11.90
2022-11-19T22:16:33.188Z,10.53
2022-11-19T22:19:00.493Z,13.53
2022-11-19T22:21:29.298Z,11.73
2022-11-19T22:23:56.684Z,11.60
2022-11-19T22:26:24.181Z,11.27
2022-11-19T22:28:51.415Z,12.27
2022-11-19T22:31:18.583Z,10.23
2022-11-19T22:33:48.007Z,12.20
2022-11-19T22:36:27.102Z,13.30
2022-11-19T22:38:54.259Z,12.13
2022-11-19T22:41:22.115Z,13.17
2022-11-19T22:43:49.356Z,9.60
2022-11-19T22:46:16.607Z,10.40
2022-11-19T22:48:44.066Z,14.10
2022-11-19T22:51:20.286Z,8.13
2022-11-19T22:53:47.995Z,7.67
2022-11-19T22:56:18.396Z,9.20
2022-11-19T22:58:46.045Z,9.50
2022-11-19T23:01:22.998Z,9.97
2022-11-19T23:03:50.577Z,9.93
2022-11-19T23:06:17.870Z,13.43
2022-11-19T23:08:45.288Z,8.00
2022-11-19T23:11:13.467Z,9.43
2022-11-19T23:13:41.614Z,13.00
2022-11-19T23:16:16.802Z,12.23
2022-11-19T23:18:51.658Z,9.83
2022-11-19T23:21:20.685Z,10.87
2022-11-19T23:23:47.911Z,11.80
2022-11-19T23:26:17.044Z,11.10
2022-11-19T23:28:45.115Z,7.40
2022-11-19T23:31:22.777Z,9.13
2022-11-19T23:33:58.615Z,7.97
2022-11-19T23:36:27.103Z,9.30
2022-11-19T23:38:54.841Z,11.40
2022-11-19T23:41:22.651Z,10.60
2022-11-19T23:43:53.061Z,8.43
2022-11-19T23:46:30.818Z,10.95
2022-11-19T23:48:58.299Z,9.47
2022-11-19T23:51:52.862Z,11.63
2022-11-19T23:54:19.007Z,12.20
2022-11-19T23:56:46.389Z,13.73
2022-11-19T23:59:13.391Z,7.90
